Accueil
METAR-TAF:

METAR-TAF

Aéroports :

Sebring, Floride, États-Unis

latitude: 27-27-23N, longitude: 081-20-33W, altitude: 19 m

Observation

Le bulletin a été fait il y a 31 minutes, à 08:15 UTC
Vent 5 kt de nord
Température 21°C
Humidité 94%
Pression 1018 hPa
Visibilité: 16.1 km
Ciel clair

METAR: KSEF 290815Z AUTO 01005KT 10SM CLR 21/20 A3006 RMK AO2 T02090205

Heure: 04:46 (08:46 UTC)


TAF: absent

Observations et prévisions météorologiques de plus de 4000 aéroports (messages METAR et TAF).

Les stations disponibles sont représentées par des disques jaunes et rouges sur la carte.

Passer la souris dessus pour voir le nom de la station.

Cliquer dessus pour voir les observations et prévisions météorologiques.

Pour changer de carte: cliquez sur les boutons verts avec une croix noire pour zoomer, sur le bouton vert avec un tiret pour effectuer un zoom arrière, ou sur les flèches vertes pour les cartes adjacentes.


METAR-TAF: